sensor_id;sensor_type;location;lat;lon;timestamp;pressure;altitude;pressure_sealevel;temperature;humidity
74466;BME280;62916;50.044;15.938;2023-10-08T00:02:27;99088.09;;;20.97;49.08
74466;BME280;62916;50.044;15.938;2023-10-08T00:04:59;99090.44;;;20.98;49.00
74466;BME280;62916;50.044;15.938;2023-10-08T00:07:30;99091.94;;;20.97;49.04
74466;BME280;62916;50.044;15.938;2023-10-08T00:10:00;99088.75;;;20.96;49.06
74466;BME280;62916;50.044;15.938;2023-10-08T00:12:32;99084.13;;;20.93;48.96
74466;BME280;62916;50.044;15.938;2023-10-08T00:15:04;99088.87;;;20.93;49.05
74466;BME280;62916;50.044;15.938;2023-10-08T00:17:38;99088.04;;;20.93;49.20
74466;BME280;62916;50.044;15.938;2023-10-08T00:20:10;99076.55;;;20.92;48.90
74466;BME280;62916;50.044;15.938;2023-10-08T00:22:55;99064.52;;;20.91;49.10
74466;BME280;62916;50.044;15.938;2023-10-08T00:25:26;99068.30;;;20.91;49.13
74466;BME280;62916;50.044;15.938;2023-10-08T00:27:57;99075.16;;;20.91;49.12
74466;BME280;62916;50.044;15.938;2023-10-08T00:30:28;99068.95;;;20.91;49.05
74466;BME280;62916;50.044;15.938;2023-10-08T00:33:00;99064.61;;;20.91;49.04
74466;BME280;62916;50.044;15.938;2023-10-08T00:35:33;99061.48;;;20.93;49.04
74466;BME280;62916;50.044;15.938;2023-10-08T00:38:08;99059.20;;;20.91;49.04
74466;BME280;62916;50.044;15.938;2023-10-08T00:40:45;99061.73;;;20.93;48.91
74466;BME280;62916;50.044;15.938;2023-10-08T00:43:35;99061.52;;;20.94;49.12
74466;BME280;62916;50.044;15.938;2023-10-08T00:46:07;99055.41;;;20.94;49.09
74466;BME280;62916;50.044;15.938;2023-10-08T00:48:48;99053.30;;;20.95;49.15
74466;BME280;62916;50.044;15.938;2023-10-08T00:51:21;99055.29;;;20.97;49.15
74466;BME280;62916;50.044;15.938;2023-10-08T00:54:01;99050.39;;;20.98;49.06
74466;BME280;62916;50.044;15.938;2023-10-08T00:56:40;99049.15;;;20.96;49.06
74466;BME280;62916;50.044;15.938;2023-10-08T00:59:22;99045.73;;;20.94;49.00
74466;BME280;62916;50.044;15.938;2023-10-08T01:01:54;99046.94;;;20.92;49.01
74466;BME280;62916;50.044;15.938;2023-10-08T01:04:35;99047.34;;;20.92;49.09
74466;BME280;62916;50.044;15.938;2023-10-08T01:07:07;99045.34;;;20.91;49.12
74466;BME280;62916;50.044;15.938;2023-10-08T01:09:42;99043.27;;;20.93;49.19
74466;BME280;62916;50.044;15.938;2023-10-08T01:12:19;99045.58;;;20.93;49.00
74466;BME280;62916;50.044;15.938;2023-10-08T01:14:56;99040.02;;;20.94;49.14
74466;BME280;62916;50.044;15.938;2023-10-08T01:17:34;99038.20;;;20.95;49.07
74466;BME280;62916;50.044;15.938;2023-10-08T01:20:18;99034.39;;;20.96;49.01
74466;BME280;62916;50.044;15.938;2023-10-08T01:23:05;99021.42;;;20.96;48.98
74466;BME280;62916;50.044;15.938;2023-10-08T01:25:40;99022.98;;;20.97;49.04
74466;BME280;62916;50.044;15.938;2023-10-08T01:28:11;99019.84;;;20.97;49.06
74466;BME280;62916;50.044;15.938;2023-10-08T01:30:47;99016.84;;;20.98;49.20
74466;BME280;62916;50.044;15.938;2023-10-08T01:33:23;99010.16;;;20.95;49.09
74466;BME280;62916;50.044;15.938;2023-10-08T01:35:57;99004.17;;;20.94;49.18
74466;BME280;62916;50.044;15.938;2023-10-08T01:38:33;98997.16;;;20.94;49.32
74466;BME280;62916;50.044;15.938;2023-10-08T01:41:05;98997.59;;;20.93;49.17
74466;BME280;62916;50.044;15.938;2023-10-08T01:43:48;98994.17;;;20.92;49.08
74466;BME280;62916;50.044;15.938;2023-10-08T01:46:21;98991.91;;;20.92;49.23
74466;BME280;62916;50.044;15.938;2023-10-08T01:48:52;98989.95;;;20.92;49.18
74466;BME280;62916;50.044;15.938;2023-10-08T01:51:29;98987.71;;;20.89;49.43
74466;BME280;62916;50.044;15.938;2023-10-08T01:54:08;98989.34;;;20.89;49.38
74466;BME280;62916;50.044;15.938;2023-10-08T01:56:41;98990.05;;;20.87;49.19
74466;BME280;62916;50.044;15.938;2023-10-08T01:59:13;98987.77;;;20.89;49.30
74466;BME280;62916;50.044;15.938;2023-10-08T02:01:45;98981.54;;;20.88;49.32
74466;BME280;62916;50.044;15.938;2023-10-08T02:04:16;98979.81;;;20.87;49.27
74466;BME280;62916;50.044;15.938;2023-10-08T02:06:48;98988.35;;;20.85;49.30
74466;BME280;62916;50.044;15.938;2023-10-08T02:09:18;98987.91;;;20.85;49.35
74466;BME280;62916;50.044;15.938;2023-10-08T02:11:55;98983.96;;;20.85;49.24
74466;BME280;62916;50.044;15.938;2023-10-08T02:14:26;98991.76;;;20.84;49.38
74466;BME280;62916;50.044;15.938;2023-10-08T02:17:01;98989.99;;;20.85;49.30
74466;BME280;62916;50.044;15.938;2023-10-08T02:19:36;98987.20;;;20.83;49.33
74466;BME280;62916;50.044;15.938;2023-10-08T02:22:07;98989.13;;;20.83;49.52
74466;BME280;62916;50.044;15.938;2023-10-08T02:24:39;98990.92;;;20.84;49.48
74466;BME280;62916;50.044;15.938;2023-10-08T02:27:10;98987.24;;;20.84;49.39
74466;BME280;62916;50.044;15.938;2023-10-08T02:29:44;98983.63;;;20.84;49.48
74466;BME280;62916;50.044;15.938;2023-10-08T02:32:15;98982.95;;;20.85;49.47
74466;BME280;62916;50.044;15.938;2023-10-08T02:34:46;98986.82;;;20.85;49.23
74466;BME280;62916;50.044;15.938;2023-10-08T02:37:17;98990.23;;;20.84;49.31
74466;BME280;62916;50.044;15.938;2023-10-08T02:39:48;98996.97;;;20.85;49.46
74466;BME280;62916;50.044;15.938;2023-10-08T02:42:20;98994.33;;;20.85;49.46
74466;BME280;62916;50.044;15.938;2023-10-08T02:44:51;98993.77;;;20.85;49.27
74466;BME280;62916;50.044;15.938;2023-10-08T02:47:23;98997.63;;;20.86;49.20
74466;BME280;62916;50.044;15.938;2023-10-08T02:49:54;99001.64;;;20.85;49.16
74466;BME280;62916;50.044;15.938;2023-10-08T02:52:24;99000.73;;;20.87;49.14
74466;BME280;62916;50.044;15.938;2023-10-08T02:54:55;98996.77;;;20.88;49.39
74466;BME280;62916;50.044;15.938;2023-10-08T02:57:26;98996.40;;;20.87;49.24
74466;BME280;62916;50.044;15.938;2023-10-08T02:59:59;98998.09;;;20.87;49.36
74466;BME280;62916;50.044;15.938;2023-10-08T03:02:35;99002.73;;;20.86;49.36
74466;BME280;62916;50.044;15.938;2023-10-08T03:05:09;99010.46;;;20.85;49.36
74466;BME280;62916;50.044;15.938;2023-10-08T03:07:42;99010.77;;;20.84;49.30
74466;BME280;62916;50.044;15.938;2023-10-08T03:10:14;99013.69;;;20.84;49.37
74466;BME280;62916;50.044;15.938;2023-10-08T03:12:48;99004.44;;;20.85;49.44
74466;BME280;62916;50.044;15.938;2023-10-08T03:15:19;99010.34;;;20.85;49.37
74466;BME280;62916;50.044;15.938;2023-10-08T03:18:01;99001.27;;;20.84;49.45
74466;BME280;62916;50.044;15.938;2023-10-08T03:20:39;98998.79;;;20.85;49.40
74466;BME280;62916;50.044;15.938;2023-10-08T03:23:14;98994.48;;;20.84;49.59
74466;BME280;62916;50.044;15.938;2023-10-08T03:25:55;98994.54;;;20.83;49.47
74466;BME280;62916;50.044;15.938;2023-10-08T03:28:29;98987.58;;;20.84;49.36
74466;BME280;62916;50.044;15.938;2023-10-08T03:31:04;98986.42;;;20.85;49.23
74466;BME280;62916;50.044;15.938;2023-10-08T03:33:35;98988.81;;;20.86;49.36
74466;BME280;62916;50.044;15.938;2023-10-08T03:36:08;98986.32;;;20.87;49.28
74466;BME280;62916;50.044;15.938;2023-10-08T03:38:44;98989.94;;;20.86;49.37
74466;BME280;62916;50.044;15.938;2023-10-08T03:41:23;98992.95;;;20.87;49.33
74466;BME280;62916;50.044;15.938;2023-10-08T03:43:58;98991.33;;;20.87;49.35
74466;BME280;62916;50.044;15.938;2023-10-08T03:46:35;98988.29;;;20.87;49.31
74466;BME280;62916;50.044;15.938;2023-10-08T03:49:07;98988.99;;;20.87;49.34
74466;BME280;62916;50.044;15.938;2023-10-08T03:51:44;98999.42;;;20.86;49.15
74466;BME280;62916;50.044;15.938;2023-10-08T03:54:15;98998.79;;;20.86;49.37
74466;BME280;62916;50.044;15.938;2023-10-08T03:56:49;99001.18;;;20.86;49.29
74466;BME280;62916;50.044;15.938;2023-10-08T03:59:20;99001.38;;;20.85;49.29
74466;BME280;62916;50.044;15.938;2023-10-08T04:02:02;99005.52;;;20.84;49.32
74466;BME280;62916;50.044;15.938;2023-10-08T04:04:39;99012.30;;;20.83;49.43
74466;BME280;62916;50.044;15.938;2023-10-08T04:07:21;99017.17;;;20.82;49.50
74466;BME280;62916;50.044;15.938;2023-10-08T04:09:59;99017.41;;;20.82;49.24
74466;BME280;62916;50.044;15.938;2023-10-08T04:12:56;99015.73;;;20.84;49.37
74466;BME280;62916;50.044;15.938;2023-10-08T04:15:26;99010.77;;;20.84;49.47
74466;BME280;62916;50.044;15.938;2023-10-08T04:17:57;99022.30;;;20.84;49.27
74466;BME280;62916;50.044;15.938;2023-10-08T04:20:32;99020.77;;;20.84;49.33
74466;BME280;62916;50.044;15.938;2023-10-08T04:23:09;99026.31;;;20.84;49.25
74466;BME280;62916;50.044;15.938;2023-10-08T04:25:48;99034.96;;;20.83;49.43
74466;BME280;62916;50.044;15.938;2023-10-08T04:28:24;99039.49;;;20.82;49.35
74466;BME280;62916;50.044;15.938;2023-10-08T04:30:58;99046.22;;;20.82;49.56
74466;BME280;62916;50.044;15.938;2023-10-08T04:33:30;99057.27;;;20.82;49.56
74466;BME280;62916;50.044;15.938;2023-10-08T04:36:04;99066.45;;;20.82;49.62
74466;BME280;62916;50.044;15.938;2023-10-08T04:38:37;99084.61;;;20.80;49.68
74466;BME280;62916;50.044;15.938;2023-10-08T04:41:10;99100.05;;;20.78;49.79
74466;BME280;62916;50.044;15.938;2023-10-08T04:43:41;99124.38;;;20.75;49.73
74466;BME280;62916;50.044;15.938;2023-10-08T04:46:12;99148.70;;;20.72;50.12
74466;BME280;62916;50.044;15.938;2023-10-08T04:48:54;99151.18;;;20.69;50.00
74466;BME280;62916;50.044;15.938;2023-10-08T04:51:28;99155.69;;;20.67;50.12
74466;BME280;62916;50.044;15.938;2023-10-08T04:54:04;99173.67;;;20.65;50.28
74466;BME280;62916;50.044;15.938;2023-10-08T04:56:35;99183.60;;;20.62;50.36
74466;BME280;62916;50.044;15.938;2023-10-08T04:59:09;99164.92;;;20.61;50.27
74466;BME280;62916;50.044;15.938;2023-10-08T05:01:41;99204.35;;;20.59;50.43
74466;BME280;62916;50.044;15.938;2023-10-08T05:04:18;99208.12;;;20.57;50.35
74466;BME280;62916;50.044;15.938;2023-10-08T05:07:00;99232.94;;;20.56;50.49
74466;BME280;62916;50.044;15.938;2023-10-08T05:10:10;99251.43;;;20.54;50.61
74466;BME280;62916;50.044;15.938;2023-10-08T05:13:01;99244.38;;;20.51;50.65
74466;BME280;62916;50.044;15.938;2023-10-08T05:15:45;99239.69;;;20.50;50.66
74466;BME280;62916;50.044;15.938;2023-10-08T05:18:33;99245.61;;;20.49;50.64
74466;BME280;62916;50.044;15.938;2023-10-08T05:21:21;99241.86;;;20.47;50.72
74466;BME280;62916;50.044;15.938;2023-10-08T05:24:10;99258.48;;;20.48;50.62
74466;BME280;62916;50.044;15.938;2023-10-08T05:26:43;99250.29;;;20.46;50.60
74466;BME280;62916;50.044;15.938;2023-10-08T05:29:19;99256.84;;;20.49;50.61
74466;BME280;62916;50.044;15.938;2023-10-08T05:32:16;99265.74;;;20.51;50.61
74466;BME280;62916;50.044;15.938;2023-10-08T05:35:15;99259.99;;;20.56;50.45
74466;BME280;62916;50.044;15.938;2023-10-08T05:38:20;99276.55;;;20.62;50.40
74466;BME280;62916;50.044;15.938;2023-10-08T05:41:08;99293.94;;;20.67;50.28
74466;BME280;62916;50.044;15.938;2023-10-08T05:44:00;99295.23;;;20.70;50.10
74466;BME280;62916;50.044;15.938;2023-10-08T05:47:08;99309.91;;;20.72;49.99
74466;BME280;62916;50.044;15.938;2023-10-08T05:50:09;99316.30;;;20.73;50.15
74466;BME280;62916;50.044;15.938;2023-10-08T05:52:57;99334.55;;;20.75;49.99
74466;BME280;62916;50.044;15.938;2023-10-08T05:55:44;99352.98;;;20.74;49.81
74466;BME280;62916;50.044;15.938;2023-10-08T05:58:30;99375.47;;;20.74;49.57
74466;BME280;62916;50.044;15.938;2023-10-08T06:01:15;99381.38;;;20.75;49.35
74466;BME280;62916;50.044;15.938;2023-10-08T06:04:09;99396.93;;;20.75;49.21
74466;BME280;62916;50.044;15.938;2023-10-08T06:07:12;99414.95;;;20.73;49.16
74466;BME280;62916;50.044;15.938;2023-10-08T06:09:50;99417.33;;;20.73;48.89
74466;BME280;62916;50.044;15.938;2023-10-08T06:12:31;99425.58;;;20.72;48.87
74466;BME280;62916;50.044;15.938;2023-10-08T06:15:14;99438.55;;;20.72;48.84
74466;BME280;62916;50.044;15.938;2023-10-08T06:17:57;99463.79;;;20.73;48.52
74466;BME280;62916;50.044;15.938;2023-10-08T06:20:37;99483.23;;;20.71;48.29
74466;BME280;62916;50.044;15.938;2023-10-08T06:23:11;99492.57;;;20.68;48.23
74466;BME280;62916;50.044;15.938;2023-10-08T06:25:43;99498.42;;;20.66;48.12
74466;BME280;62916;50.044;15.938;2023-10-08T06:28:24;99512.52;;;20.63;47.99
74466;BME280;62916;50.044;15.938;2023-10-08T06:30:57;99518.64;;;20.61;47.87
74466;BME280;62916;50.044;15.938;2023-10-08T06:33:28;99528.16;;;20.61;47.90
74466;BME280;62916;50.044;15.938;2023-10-08T06:36:04;99527.45;;;20.60;47.68
74466;BME280;62916;50.044;15.938;2023-10-08T06:38:43;99525.48;;;20.60;47.80
74466;BME280;62916;50.044;15.938;2023-10-08T06:41:18;99527.80;;;20.59;47.61
74466;BME280;62916;50.044;15.938;2023-10-08T06:44:04;99519.71;;;20.57;47.72
74466;BME280;62916;50.044;15.938;2023-10-08T06:46:36;99525.81;;;20.57;47.59
74466;BME280;62916;50.044;15.938;2023-10-08T06:49:10;99532.28;;;20.55;47.55
74466;BME280;62916;50.044;15.938;2023-10-08T06:51:45;99525.49;;;20.54;47.64
74466;BME280;62916;50.044;15.938;2023-10-08T06:54:17;99544.98;;;20.54;47.47
74466;BME280;62916;50.044;15.938;2023-10-08T06:56:50;99553.90;;;20.54;47.47
74466;BME280;62916;50.044;15.938;2023-10-08T06:59:22;99552.61;;;20.53;47.23
74466;BME280;62916;50.044;15.938;2023-10-08T07:01:55;99566.26;;;20.53;47.20
74466;BME280;62916;50.044;15.938;2023-10-08T07:04:28;99567.06;;;20.52;47.05
74466;BME280;62916;50.044;15.938;2023-10-08T07:06:59;99581.77;;;20.52;47.17
74466;BME280;62916;50.044;15.938;2023-10-08T07:09:30;99582.44;;;20.52;47.16
74466;BME280;62916;50.044;15.938;2023-10-08T07:12:06;99582.35;;;20.50;46.90
74466;BME280;62916;50.044;15.938;2023-10-08T07:14:43;99588.30;;;20.49;46.97
74466;BME280;62916;50.044;15.938;2023-10-08T07:17:16;99599.69;;;20.48;47.30
74466;BME280;62916;50.044;15.938;2023-10-08T07:19:50;99613.23;;;20.50;47.50
74466;BME280;62916;50.044;15.938;2023-10-08T07:22:23;99615.65;;;20.51;47.26
74466;BME280;62916;50.044;15.938;2023-10-08T07:24:58;99615.17;;;20.49;46.96
74466;BME280;62916;50.044;15.938;2023-10-08T07:27:30;99620.30;;;20.46;46.81
74466;BME280;62916;50.044;15.938;2023-10-08T07:30:09;99632.91;;;20.44;46.77
74466;BME280;62916;50.044;15.938;2023-10-08T07:32:41;99653.29;;;20.42;46.48
74466;BME280;62916;50.044;15.938;2023-10-08T07:35:14;99675.54;;;20.42;46.60
74466;BME280;62916;50.044;15.938;2023-10-08T07:37:53;99685.86;;;20.41;46.43
74466;BME280;62916;50.044;15.938;2023-10-08T07:40:26;99675.64;;;20.39;46.32
74466;BME280;62916;50.044;15.938;2023-10-08T07:43:00;99684.34;;;20.38;46.44
74466;BME280;62916;50.044;15.938;2023-10-08T07:45:38;99697.77;;;20.36;46.46
74466;BME280;62916;50.044;15.938;2023-10-08T07:48:09;99710.48;;;20.35;46.38
74466;BME280;62916;50.044;15.938;2023-10-08T07:50:44;99701.66;;;20.31;46.45
74466;BME280;62916;50.044;15.938;2023-10-08T07:53:16;99687.04;;;20.33;46.27
74466;BME280;62916;50.044;15.938;2023-10-08T07:55:49;99688.25;;;20.36;46.38
74466;BME280;62916;50.044;15.938;2023-10-08T07:58:20;99701.81;;;20.37;46.43
74466;BME280;62916;50.044;15.938;2023-10-08T08:00:51;99699.16;;;20.37;46.33
74466;BME280;62916;50.044;15.938;2023-10-08T08:03:23;99715.95;;;20.37;46.18
74466;BME280;62916;50.044;15.938;2023-10-08T08:05:54;99734.11;;;20.36;46.25
74466;BME280;62916;50.044;15.938;2023-10-08T08:08:25;99728.52;;;20.37;46.16
74466;BME280;62916;50.044;15.938;2023-10-08T08:10:57;99726.08;;;20.37;46.24
74466;BME280;62916;50.044;15.938;2023-10-08T08:13:34;99729.36;;;20.37;46.17
74466;BME280;62916;50.044;15.938;2023-10-08T08:16:05;99735.76;;;20.36;46.21
74466;BME280;62916;50.044;15.938;2023-10-08T08:18:52;99736.96;;;20.37;46.48
74466;BME280;62916;50.044;15.938;2023-10-08T08:21:26;99732.02;;;20.41;46.71
74466;BME280;62916;50.044;15.938;2023-10-08T08:24:00;99738.70;;;20.43;46.85
74466;BME280;62916;50.044;15.938;2023-10-08T08:26:35;99743.20;;;20.44;46.79
74466;BME280;62916;50.044;15.938;2023-10-08T08:29:14;99742.08;;;20.49;46.92
74466;BME280;62916;50.044;15.938;2023-10-08T08:31:45;99740.86;;;20.53;47.02
74466;BME280;62916;50.044;15.938;2023-10-08T08:34:16;99750.65;;;20.56;47.10
74466;BME280;62916;50.044;15.938;2023-10-08T08:36:49;99752.70;;;20.59;47.29
74466;BME280;62916;50.044;15.938;2023-10-08T08:39:20;99752.55;;;20.62;47.31
74466;BME280;62916;50.044;15.938;2023-10-08T08:42:03;99764.02;;;20.65;47.24
74466;BME280;62916;50.044;15.938;2023-10-08T08:44:36;99763.81;;;20.66;47.37
74466;BME280;62916;50.044;15.938;2023-10-08T08:47:15;99767.12;;;20.71;47.52
74466;BME280;62916;50.044;15.938;2023-10-08T08:49:49;99771.04;;;20.73;47.57
74466;BME280;62916;50.044;15.938;2023-10-08T08:52:25;99780.94;;;20.75;47.59
74466;BME280;62916;50.044;15.938;2023-10-08T08:54:56;99778.36;;;20.76;47.47
74466;BME280;62916;50.044;15.938;2023-10-08T08:57:27;99783.95;;;20.78;47.68
74466;BME280;62916;50.044;15.938;2023-10-08T09:00:00;99791.54;;;20.81;47.75
74466;BME280;62916;50.044;15.938;2023-10-08T09:02:38;99792.77;;;20.81;47.79
74466;BME280;62916;50.044;15.938;2023-10-08T09:05:10;99793.23;;;20.86;47.89
74466;BME280;62916;50.044;15.938;2023-10-08T09:07:59;99798.30;;;20.87;47.96
74466;BME280;62916;50.044;15.938;2023-10-08T09:10:34;99805.59;;;20.90;47.84
74466;BME280;62916;50.044;15.938;2023-10-08T09:13:09;99811.02;;;20.93;47.93
74466;BME280;62916;50.044;15.938;2023-10-08T09:15:41;99820.66;;;20.97;47.82
74466;BME280;62916;50.044;15.938;2023-10-08T09:18:12;99828.63;;;21.00;47.95
74466;BME280;62916;50.044;15.938;2023-10-08T09:20:44;99836.66;;;21.01;47.84
74466;BME280;62916;50.044;15.938;2023-10-08T09:23:18;99842.55;;;21.04;47.86
74466;BME280;62916;50.044;15.938;2023-10-08T09:25:52;99842.09;;;21.07;47.90
74466;BME280;62916;50.044;15.938;2023-10-08T09:28:33;99833.94;;;21.10;47.86
74466;BME280;62916;50.044;15.938;2023-10-08T09:31:12;99840.45;;;21.12;48.03
74466;BME280;62916;50.044;15.938;2023-10-08T09:33:43;99843.63;;;21.15;47.85
74466;BME280;62916;50.044;15.938;2023-10-08T09:36:24;99843.58;;;21.17;48.07
74466;BME280;62916;50.044;15.938;2023-10-08T09:39:03;99840.84;;;21.20;48.06
74466;BME280;62916;50.044;15.938;2023-10-08T09:41:34;99847.41;;;21.22;47.98
74466;BME280;62916;50.044;15.938;2023-10-08T09:44:07;99846.00;;;21.22;48.07
74466;BME280;62916;50.044;15.938;2023-10-08T09:46:42;99848.00;;;21.24;48.01
74466;BME280;62916;50.044;15.938;2023-10-08T09:49:17;99850.18;;;21.26;48.04
74466;BME280;62916;50.044;15.938;2023-10-08T09:51:49;99852.63;;;21.30;48.07
74466;BME280;62916;50.044;15.938;2023-10-08T09:54:25;99851.88;;;21.33;48.14
74466;BME280;62916;50.044;15.938;2023-10-08T09:57:03;99859.05;;;21.35;48.10
74466;BME280;62916;50.044;15.938;2023-10-08T09:59:36;99861.29;;;21.37;48.06
74466;BME280;62916;50.044;15.938;2023-10-08T10:02:11;99869.23;;;21.40;48.07
74466;BME280;62916;50.044;15.938;2023-10-08T10:04:45;99871.30;;;21.42;48.06
74466;BME280;62916;50.044;15.938;2023-10-08T10:07:16;99877.86;;;21.45;48.13
74466;BME280;62916;50.044;15.938;2023-10-08T10:09:51;99877.49;;;21.46;47.92
74466;BME280;62916;50.044;15.938;2023-10-08T10:12:29;99884.76;;;21.50;47.96
74466;BME280;62916;50.044;15.938;2023-10-08T10:15:01;99884.50;;;21.51;48.02
74466;BME280;62916;50.044;15.938;2023-10-08T10:17:40;99878.94;;;21.54;48.16
74466;BME280;62916;50.044;15.938;2023-10-08T10:20:14;99885.29;;;21.56;48.00
74466;BME280;62916;50.044;15.938;2023-10-08T10:22:45;99890.94;;;21.58;47.99
74466;BME280;62916;50.044;15.938;2023-10-08T10:25:18;99889.14;;;21.61;47.87
74466;BME280;62916;50.044;15.938;2023-10-08T10:28:24;99894.35;;;21.63;47.92
74466;BME280;62916;50.044;15.938;2023-10-08T10:30:55;99896.23;;;21.66;47.92
74466;BME280;62916;50.044;15.938;2023-10-08T10:33:32;99898.54;;;21.68;48.00
74466;BME280;62916;50.044;15.938;2023-10-08T10:36:04;99897.04;;;21.71;48.19
74466;BME280;62916;50.044;15.938;2023-10-08T10:38:38;99891.98;;;21.72;48.22
74466;BME280;62916;50.044;15.938;2023-10-08T10:41:12;99897.66;;;21.74;48.24
74466;BME280;62916;50.044;15.938;2023-10-08T10:43:46;99901.09;;;21.75;48.09
74466;BME280;62916;50.044;15.938;2023-10-08T10:46:22;99902.42;;;21.77;48.22
74466;BME280;62916;50.044;15.938;2023-10-08T10:49:01;99904.32;;;21.77;47.89
74466;BME280;62916;50.044;15.938;2023-10-08T10:51:37;99905.73;;;21.79;48.21
74466;BME280;62916;50.044;15.938;2023-10-08T10:54:11;99901.92;;;21.82;47.98
74466;BME280;62916;50.044;15.938;2023-10-08T10:56:49;99896.66;;;21.83;48.16
74466;BME280;62916;50.044;15.938;2023-10-08T10:59:33;99902.45;;;21.85;48.09
74466;BME280;62916;50.044;15.938;2023-10-08T11:02:12;99902.64;;;21.86;47.96
74466;BME280;62916;50.044;15.938;2023-10-08T11:05:01;99902.35;;;21.89;47.94
74466;BME280;62916;50.044;15.938;2023-10-08T11:07:38;99902.77;;;21.90;48.22
74466;BME280;62916;50.044;15.938;2023-10-08T11:10:11;99895.36;;;21.92;48.12
74466;BME280;62916;50.044;15.938;2023-10-08T11:12:45;99891.09;;;21.93;48.14
74466;BME280;62916;50.044;15.938;2023-10-08T11:15:23;99887.35;;;21.94;48.09
74466;BME280;62916;50.044;15.938;2023-10-08T11:17:59;99889.41;;;21.96;48.08
74466;BME280;62916;50.044;15.938;2023-10-08T11:20:31;99892.96;;;21.97;48.15
74466;BME280;62916;50.044;15.938;2023-10-08T11:23:03;99889.55;;;21.98;48.01
74466;BME280;62916;50.044;15.938;2023-10-08T11:25:58;99887.61;;;21.99;47.92
74466;BME280;62916;50.044;15.938;2023-10-08T11:28:32;99891.48;;;22.01;48.04
74466;BME280;62916;50.044;15.938;2023-10-08T11:31:05;99895.56;;;22.04;48.05
74466;BME280;62916;50.044;15.938;2023-10-08T11:33:40;99900.05;;;22.06;47.94
74466;BME280;62916;50.044;15.938;2023-10-08T11:36:16;99892.71;;;22.05;48.05
74466;BME280;62916;50.044;15.938;2023-10-08T11:38:49;99896.11;;;22.09;47.80
74466;BME280;62916;50.044;15.938;2023-10-08T11:41:21;99891.37;;;22.12;47.97
74466;BME280;62916;50.044;15.938;2023-10-08T11:43:54;99890.98;;;22.13;47.82
74466;BME280;62916;50.044;15.938;2023-10-08T11:46:27;99889.94;;;22.17;47.74
74466;BME280;62916;50.044;15.938;2023-10-08T11:49:03;99887.60;;;22.19;47.71
74466;BME280;62916;50.044;15.938;2023-10-08T11:51:35;99885.65;;;22.22;47.72
74466;BME280;62916;50.044;15.938;2023-10-08T11:54:07;99882.34;;;22.22;47.79
74466;BME280;62916;50.044;15.938;2023-10-08T11:56:42;99886.19;;;22.26;47.90
74466;BME280;62916;50.044;15.938;2023-10-08T11:59:14;99882.14;;;22.28;47.84
74466;BME280;62916;50.044;15.938;2023-10-08T12:01:48;99885.83;;;22.31;47.61
74466;BME280;62916;50.044;15.938;2023-10-08T12:04:20;99886.41;;;22.34;47.78
74466;BME280;62916;50.044;15.938;2023-10-08T12:06:52;99880.59;;;22.37;47.81
74466;BME280;62916;50.044;15.938;2023-10-08T12:09:25;99878.84;;;22.42;47.68
74466;BME280;62916;50.044;15.938;2023-10-08T12:11:57;99877.05;;;22.44;47.76
74466;BME280;62916;50.044;15.938;2023-10-08T12:14:28;99880.42;;;22.48;47.69
74466;BME280;62916;50.044;15.938;2023-10-08T12:17:00;99878.71;;;22.51;47.64
74466;BME280;62916;50.044;15.938;2023-10-08T12:19:40;99882.14;;;22.54;47.56
74466;BME280;62916;50.044;15.938;2023-10-08T12:22:12;99884.41;;;22.57;47.48
74466;BME280;62916;50.044;15.938;2023-10-08T12:24:49;99886.73;;;22.59;47.56
74466;BME280;62916;50.044;15.938;2023-10-08T12:27:20;99886.90;;;22.61;47.48
74466;BME280;62916;50.044;15.938;2023-10-08T12:29:51;99885.63;;;22.63;47.61
74466;BME280;62916;50.044;15.938;2023-10-08T12:32:22;99885.25;;;22.62;47.35
74466;BME280;62916;50.044;15.938;2023-10-08T12:34:54;99892.73;;;22.67;47.41
74466;BME280;62916;50.044;15.938;2023-10-08T12:37:26;99889.94;;;22.66;47.60
74466;BME280;62916;50.044;15.938;2023-10-08T12:40:00;99891.20;;;22.67;47.64
74466;BME280;62916;50.044;15.938;2023-10-08T12:42:43;99891.02;;;22.68;47.60
74466;BME280;62916;50.044;15.938;2023-10-08T12:45:14;99884.98;;;22.69;47.49
74466;BME280;62916;50.044;15.938;2023-10-08T12:47:51;99877.98;;;22.70;47.65
74466;BME280;62916;50.044;15.938;2023-10-08T12:50:23;99879.76;;;22.70;47.46
74466;BME280;62916;50.044;15.938;2023-10-08T12:52:59;99876.82;;;22.70;47.48
74466;BME280;62916;50.044;15.938;2023-10-08T12:55:34;99886.02;;;22.73;47.41
74466;BME280;62916;50.044;15.938;2023-10-08T12:58:09;99886.01;;;22.75;47.54
74466;BME280;62916;50.044;15.938;2023-10-08T13:00:45;99888.97;;;22.78;47.59
74466;BME280;62916;50.044;15.938;2023-10-08T13:03:21;99889.17;;;22.80;47.42
74466;BME280;62916;50.044;15.938;2023-10-08T13:05:54;99890.05;;;22.82;47.46
74466;BME280;62916;50.044;15.938;2023-10-08T13:08:34;99897.25;;;22.83;47.54
74466;BME280;62916;50.044;15.938;2023-10-08T13:11:05;99893.88;;;22.85;47.52
74466;BME280;62916;50.044;15.938;2023-10-08T13:13:36;99892.84;;;22.86;47.56
74466;BME280;62916;50.044;15.938;2023-10-08T13:16:09;99886.41;;;22.88;47.49
74466;BME280;62916;50.044;15.938;2023-10-08T13:18:40;99887.05;;;22.90;47.49
74466;BME280;62916;50.044;15.938;2023-10-08T13:21:14;99888.31;;;22.91;47.48
74466;BME280;62916;50.044;15.938;2023-10-08T13:23:45;99878.30;;;22.89;47.45
74466;BME280;62916;50.044;15.938;2023-10-08T13:26:17;99876.61;;;22.93;47.68
74466;BME280;62916;50.044;15.938;2023-10-08T13:28:48;99878.13;;;22.91;47.44
74466;BME280;62916;50.044;15.938;2023-10-08T13:31:19;99872.77;;;22.93;47.45
74466;BME280;62916;50.044;15.938;2023-10-08T13:33:52;99877.56;;;22.93;47.56
74466;BME280;62916;50.044;15.938;2023-10-08T13:36:26;99878.84;;;22.95;47.40